Forside
METAR-TAF:

METAR-TAF

Lufthavne :

Bahawalpur, Pakistan

Breddekreds: 29-20-53N, længdekreds: 71-43-04E, højde: 119 m

METAR: fraværende

Tid: 22:47 (17:47 UTC)

Vejrudsigter

Denne rapport blev lavet for 2 timer og 2 minutter siden, kl. 15:45 UTC
Foreløbig gælder fra 03 på 18 UTC til 04 på 12 UTC
Vind 10 kt fra nord
Sigt: 4000 m
Nogle få skyer i en højde af 12000 ft
røg

TAF: OPBW 031545Z 0318/0412 36010KT 4000 FU FEW120 TN16/1401Z TX32/0410Z

Vejrobservationer og prognoser fra mere end 4000 lufthavne (METAR og TAF).

De gule og røde prikker repræsenterer de meteorologiske stationer.

Flyt musen over at se navnet på stationen.

Så klik over at se vejr observationer og prognoser.

At skifte det kort: Klik på de grønne knapper med et sort kors for at zoome ind; på den grønne knap med en bindestreg for at zoome ud; eller på de grønne pile for tilstødende kort.


METAR-TAF: